Terminal Aerodrome Forecast
Issued by NWS Flagstaff, AZ

Home | Current Version | Previous Version | Text Only | Print | Product List | Glossary On
Versions: 1 2 3 4 5 6 7 8 9 10 11 12 13
348
FTUS45 KFGZ 210520
TAFFLG
TAF
KFLG 210520Z 2106/2206 VRB05KT P6SM OVC250
     FM211600 05008KT P6SM BKN250
     FM220100 VRB04KT P6SM BKN250=

USA.gov is the U.S. government's official web portal to all federal, state and local government web resources and services.